Time;durP1;ratioP1;P1;durP2;ratioP2;P2;SDS_P1;SDS_P2;PMS_P1;PMS_P2;Temp;Humidity;BMP_temperature;BMP_pressure;BME280_temperature;BME280_humidity;BME280_pressure;Samples;Min_cycle;Max_cycle;Signal;HPM_P1;HPM_P2
2021/01/15 00:00:39;;;;;;;8.63;3.77;;;;;;;;;;4973272;28;20337;-81
2021/01/15 00:03:34;;;;;;;11.85;4.97;;;;;;;;;;4954701;29;20287;-82
2021/01/15 00:16:05;;;;;;;9.88;4.80;;;;;;;;;;4959239;28;20027;-82
2021/01/15 00:18:52;;;;;;;10.00;4.47;;;;;;;;;;4960431;28;20112;-84
2021/01/15 00:25:06;;;;;;;8.77;4.60;;;;;;;;;;4915046;29;20033;-84
2021/01/15 00:33:45;;;;;;;12.93;4.50;;;;;;;;;;4911078;29;20031;-81
2021/01/15 00:36:38;;;;;;;9.23;4.38;;;;;;;;;;4934043;29;20094;-82
2021/01/15 00:41:51;;;;;;;12.50;4.85;;;;;;;;;;4964582;28;20446;-82
2021/01/15 00:44:36;;;;;;;8.07;4.40;;;;;;;;;;4966609;28;20116;-81
2021/01/15 00:47:12;;;;;;;11.07;4.90;;;;;;;;;;4980763;28;20066;-81
2021/01/15 00:49:46;;;;;;;8.25;4.35;;;;;;;;;;4972772;28;20412;-81
2021/01/15 00:52:15;;;;;;;9.95;4.40;;;;;;;;;;4962017;28;20091;-84
2021/01/15 00:54:45;;;;;;;8.48;4.13;;;;;;;;;;4960453;28;20030;-83
2021/01/15 00:57:11;;;;;;;11.85;5.40;;;;;;;;;;4971501;28;20481;-81
2021/01/15 00:59:39;;;;;;;8.93;4.90;;;;;;;;;;4964326;28;20031;-82
2021/01/15 01:02:06;;;;;;;8.68;4.53;;;;;;;;;;4973195;28;20026;-81
2021/01/15 01:04:32;;;;;;;12.38;4.38;;;;;;;;;;4972046;28;20546;-81
2021/01/15 01:06:58;;;;;;;12.98;4.63;;;;;;;;;;4982639;28;20030;-82
2021/01/15 01:09:24;;;;;;;9.85;4.63;;;;;;;;;;4993514;28;20035;-81
2021/01/15 01:11:51;;;;;;;9.90;5.28;;;;;;;;;;4961929;28;20035;-82
2021/01/15 01:14:17;;;;;;;9.13;4.82;;;;;;;;;;4963116;28;20038;-84
2021/01/15 01:16:43;;;;;;;11.57;5.25;;;;;;;;;;4971893;28;20023;-82
2021/01/15 01:19:09;;;;;;;10.52;4.68;;;;;;;;;;4972355;28;20086;-82
2021/01/15 01:21:35;;;;;;;10.25;4.45;;;;;;;;;;4961592;28;20478;-82
2021/01/15 01:24:01;;;;;;;8.75;4.65;;;;;;;;;;4979209;28;20102;-83
2021/01/15 01:26:27;;;;;;;10.60;5.10;;;;;;;;;;4999045;28;20038;-84
2021/01/15 01:28:54;;;;;;;10.00;4.85;;;;;;;;;;4988017;28;20042;-83
2021/01/15 01:31:20;;;;;;;10.05;5.22;;;;;;;;;;4983638;28;20038;-82
2021/01/15 01:33:47;;;;;;;7.00;3.83;;;;;;;;;;4982739;28;20098;-82
2021/01/15 01:36:13;;;;;;;9.13;4.70;;;;;;;;;;4978769;28;20061;-81
2021/01/15 01:38:41;;;;;;;11.70;5.25;;;;;;;;;;4982015;28;20026;-81
2021/01/15 01:41:07;;;;;;;8.85;4.50;;;;;;;;;;4973149;28;20027;-83
2021/01/15 01:43:34;;;;;;;9.40;5.07;;;;;;;;;;4991108;28;20035;-82
2021/01/15 01:46:03;;;;;;;10.45;5.35;;;;;;;;;;4978941;28;20053;-83
2021/01/15 01:48:29;;;;;;;10.35;4.93;;;;;;;;;;4975096;28;20034;-81
2021/01/15 01:50:56;;;;;;;10.18;5.07;;;;;;;;;;4973019;28;20031;-83
2021/01/15 01:53:25;;;;;;;9.48;4.70;;;;;;;;;;4990148;28;20034;-81
2021/01/15 01:55:51;;;;;;;11.98;4.80;;;;;;;;;;4974223;28;20057;-82
2021/01/15 01:58:20;;;;;;;11.30;5.57;;;;;;;;;;4966137;28;20504;-81
2021/01/15 02:00:48;;;;;;;8.70;5.15;;;;;;;;;;4957947;28;20911;-81
2021/01/15 02:03:18;;;;;;;9.05;5.00;;;;;;;;;;4956300;28;20117;-82
2021/01/15 02:05:44;;;;;;;13.10;5.80;;;;;;;;;;4953856;28;20035;-82
2021/01/15 02:08:10;;;;;;;10.80;5.53;;;;;;;;;;4968883;28;20039;-81
2021/01/15 02:10:39;;;;;;;9.20;5.32;;;;;;;;;;4968821;28;20031;-82
2021/01/15 02:13:12;;;;;;;10.10;5.38;;;;;;;;;;4991697;28;20508;-82
2021/01/15 02:15:39;;;;;;;8.40;5.63;;;;;;;;;;4973256;28;20150;-82
2021/01/15 02:18:16;;;;;;;9.68;5.20;;;;;;;;;;4986900;28;20114;-82
2021/01/15 02:21:01;;;;;;;10.52;5.88;;;;;;;;;;4970727;28;21082;-81
2021/01/15 02:23:41;;;;;;;10.25;5.32;;;;;;;;;;4967259;28;20389;-83
2021/01/15 02:26:35;;;;;;;12.13;5.50;;;;;;;;;;4971467;28;20046;-81
2021/01/15 02:29:07;;;;;;;10.88;5.63;;;;;;;;;;4970218;28;20113;-82
2021/01/15 02:31:33;;;;;;;11.05;5.95;;;;;;;;;;4970321;28;20038;-82
2021/01/15 02:34:09;;;;;;;10.52;5.85;;;;;;;;;;4976433;28;20042;-83
2021/01/15 02:37:01;;;;;;;12.23;5.90;;;;;;;;;;4969823;28;20115;-82
2021/01/15 02:39:30;;;;;;;16.00;6.13;;;;;;;;;;4951954;28;20035;-82
2021/01/15 02:41:58;;;;;;;9.27;5.53;;;;;;;;;;4960248;28;20022;-84
2021/01/15 02:44:24;;;;;;;10.75;5.57;;;;;;;;;;4988105;28;20162;-84
2021/01/15 02:46:59;;;;;;;9.55;5.38;;;;;;;;;;4977377;28;20094;-83
2021/01/15 02:49:27;;;;;;;13.52;7.45;;;;;;;;;;4961627;28;20058;-82
2021/01/15 02:51:54;;;;;;;12.43;6.45;;;;;;;;;;4964342;28;20020;-82
2021/01/15 02:54:20;;;;;;;12.50;7.10;;;;;;;;;;4971318;28;20055;-81
2021/01/15 02:56:46;;;;;;;14.77;6.32;;;;;;;;;;4987229;28;20023;-82
2021/01/15 02:59:13;;;;;;;17.00;6.75;;;;;;;;;;4968912;28;20046;-82
2021/01/15 03:01:45;;;;;;;11.98;7.30;;;;;;;;;;4976092;28;20102;-81
2021/01/15 03:04:34;;;;;;;11.63;6.20;;;;;;;;;;4993054;28;20121;-83
2021/01/15 03:07:02;;;;;;;13.45;7.20;;;;;;;;;;4963333;28;20031;-81
2021/01/15 03:09:33;;;;;;;11.80;7.35;;;;;;;;;;4959011;28;20058;-81
2021/01/15 03:12:00;;;;;;;12.07;7.28;;;;;;;;;;4964435;28;20026;-82
2021/01/15 03:14:28;;;;;;;12.75;7.05;;;;;;;;;;4965650;28;20400;-81
2021/01/15 03:16:55;;;;;;;14.00;7.85;;;;;;;;;;4976315;28;20019;-81
2021/01/15 03:19:21;;;;;;;13.68;6.90;;;;;;;;;;4978454;28;20055;-82
2021/01/15 03:21:50;;;;;;;13.05;7.05;;;;;;;;;;4977371;28;20102;-81
2021/01/15 03:24:17;;;;;;;12.40;6.68;;;;;;;;;;4976747;28;20042;-81
2021/01/15 03:26:43;;;;;;;14.35;7.57;;;;;;;;;;4977577;28;20559;-81
2021/01/15 03:29:13;;;;;;;15.00;8.20;;;;;;;;;;4976985;28;20039;-81
2021/01/15 03:31:42;;;;;;;15.65;7.68;;;;;;;;;;4977572;28;20031;-81
2021/01/15 03:34:09;;;;;;;15.15;7.88;;;;;;;;;;4975287;28;20038;-81
2021/01/15 03:36:35;;;;;;;14.85;6.88;;;;;;;;;;4974331;28;20039;-81
2021/01/15 03:39:02;;;;;;;14.63;6.80;;;;;;;;;;4977222;28;20027;-81
2021/01/15 03:41:28;;;;;;;13.75;7.15;;;;;;;;;;4971787;28;20031;-84
2021/01/15 03:43:54;;;;;;;12.52;7.40;;;;;;;;;;4983193;28;20030;-81
2021/01/15 03:46:20;;;;;;;12.50;7.00;;;;;;;;;;4975160;28;20031;-83
2021/01/15 03:48:46;;;;;;;14.10;7.53;;;;;;;;;;4978396;28;20027;-81
2021/01/15 03:51:13;;;;;;;16.52;7.68;;;;;;;;;;4962306;28;20166;-82
2021/01/15 03:53:39;;;;;;;15.75;7.93;;;;;;;;;;4966127;28;20640;-81
2021/01/15 03:56:06;;;;;;;18.05;8.57;;;;;;;;;;4977347;28;20110;-81
2021/01/15 03:58:32;;;;;;;15.18;8.10;;;;;;;;;;4965007;28;20110;-82
2021/01/15 04:00:58;;;;;;;14.93;7.78;;;;;;;;;;4973579;28;20101;-81
2021/01/15 04:03:24;;;;;;;19.67;9.18;;;;;;;;;;4978453;28;20072;-81
2021/01/15 04:05:50;;;;;;;16.73;8.55;;;;;;;;;;4972699;28;20058;-81
2021/01/15 04:08:16;;;;;;;14.05;7.10;;;;;;;;;;4973702;28;20035;-81
2021/01/15 04:10:42;;;;;;;16.45;7.35;;;;;;;;;;4959766;28;20035;-81
2021/01/15 04:13:08;;;;;;;14.40;7.80;;;;;;;;;;4962948;28;20125;-81
2021/01/15 04:15:34;;;;;;;14.00;7.55;;;;;;;;;;4964564;28;20028;-81
2021/01/15 04:18:00;;;;;;;13.93;7.32;;;;;;;;;;4969973;28;20515;-83
2021/01/15 04:20:26;;;;;;;14.07;8.30;;;;;;;;;;4967200;28;20023;-81
2021/01/15 04:22:53;;;;;;;15.15;8.20;;;;;;;;;;4993352;28;20038;-81
2021/01/15 04:25:19;;;;;;;17.92;8.10;;;;;;;;;;4977395;28;20085;-81
2021/01/15 04:27:45;;;;;;;14.13;7.85;;;;;;;;;;4954769;28;20050;-81
2021/01/15 04:30:12;;;;;;;13.45;7.40;;;;;;;;;;4962756;28;20051;-82
2021/01/15 04:32:48;;;;;;;17.73;7.18;;;;;;;;;;4971165;28;20034;-84
2021/01/15 04:35:18;;;;;;;14.18;8.27;;;;;;;;;;4953345;28;20117;-81
2021/01/15 04:37:44;;;;;;;16.55;8.18;;;;;;;;;;4968524;28;20084;-82
2021/01/15 04:40:11;;;;;;;15.05;7.70;;;;;;;;;;4987919;28;20030;-81
2021/01/15 04:42:41;;;;;;;11.60;6.90;;;;;;;;;;4954826;28;20059;-81
2021/01/15 04:45:08;;;;;;;15.68;8.57;;;;;;;;;;4984202;28;20503;-81
2021/01/15 04:47:35;;;;;;;15.98;8.27;;;;;;;;;;4963141;28;20081;-81
2021/01/15 04:50:01;;;;;;;14.02;7.38;;;;;;;;;;4983968;28;20038;-81
2021/01/15 04:52:31;;;;;;;15.30;8.23;;;;;;;;;;4990164;28;20492;-81
2021/01/15 04:55:00;;;;;;;17.40;8.60;;;;;;;;;;4960650;28;20097;-84
2021/01/15 04:57:29;;;;;;;16.85;8.00;;;;;;;;;;4972293;28;20039;-81
2021/01/15 04:59:55;;;;;;;18.42;9.18;;;;;;;;;;4967718;28;20042;-81
2021/01/15 05:02:21;;;;;;;19.50;8.60;;;;;;;;;;4960567;28;20039;-82
2021/01/15 05:04:47;;;;;;;18.77;8.85;;;;;;;;;;4979711;28;20034;-82
2021/01/15 05:07:14;;;;;;;16.48;8.07;;;;;;;;;;4953145;29;20035;-83
2021/01/15 05:09:44;;;;;;;15.80;7.22;;;;;;;;;;4962249;28;20863;-81
2021/01/15 05:12:13;;;;;;;14.57;7.97;;;;;;;;;;4967014;28;20109;-81
2021/01/15 05:14:42;;;;;;;18.52;9.07;;;;;;;;;;4987096;28;20026;-81
2021/01/15 05:17:08;;;;;;;16.23;9.20;;;;;;;;;;4972102;28;20109;-81
2021/01/15 05:19:38;;;;;;;16.10;8.90;;;;;;;;;;4971985;28;20039;-81
2021/01/15 05:22:05;;;;;;;26.88;14.45;;;;;;;;;;4973289;28;20597;-82
2021/01/15 05:24:31;;;;;;;34.05;21.20;;;;;;;;;;4968032;28;20039;-81
2021/01/15 05:26:59;;;;;;;23.65;13.32;;;;;;;;;;4953819;29;20034;-81
2021/01/15 05:29:25;;;;;;;17.45;9.77;;;;;;;;;;4962322;28;20419;-82
2021/01/15 05:31:55;;;;;;;16.10;9.38;;;;;;;;;;4971537;28;20034;-81
2021/01/15 05:34:22;;;;;;;19.45;10.10;;;;;;;;;;4989570;28;20034;-81
2021/01/15 05:36:49;;;;;;;17.42;9.75;;;;;;;;;;4983049;28;20035;-82
2021/01/15 05:39:16;;;;;;;18.52;9.80;;;;;;;;;;4983458;28;20045;-81
2021/01/15 05:41:43;;;;;;;18.45;10.80;;;;;;;;;;4964832;28;20034;-81
2021/01/15 05:44:09;;;;;;;20.52;8.55;;;;;;;;;;4961546;28;20035;-81
2021/01/15 05:46:35;;;;;;;18.98;9.38;;;;;;;;;;4968200;28;20031;-81
2021/01/15 05:49:11;;;;;;;17.73;9.10;;;;;;;;;;4952745;29;20035;-81
2021/01/15 05:51:38;;;;;;;16.60;9.02;;;;;;;;;;4973745;28;20035;-81
2021/01/15 05:54:06;;;;;;;20.58;9.77;;;;;;;;;;4957323;28;20053;-81
2021/01/15 05:56:42;;;;;;;17.90;8.93;;;;;;;;;;4954219;28;20046;-81
2021/01/15 05:59:09;;;;;;;23.25;11.10;;;;;;;;;;4971415;28;20034;-82
2021/01/15 06:01:40;;;;;;;23.95;12.52;;;;;;;;;;4969346;28;20057;-81
2021/01/15 06:04:07;;;;;;;20.35;10.60;;;;;;;;;;4969649;28;20031;-81
2021/01/15 06:06:33;;;;;;;20.10;11.48;;;;;;;;;;4969844;28;20050;-82
2021/01/15 06:09:00;;;;;;;23.27;10.45;;;;;;;;;;4973114;28;20082;-81
2021/01/15 06:11:27;;;;;;;24.63;11.48;;;;;;;;;;4977003;28;20176;-83
2021/01/15 06:13:57;;;;;;;22.92;11.90;;;;;;;;;;4998300;28;20023;-82
2021/01/15 06:16:23;;;;;;;20.83;11.75;;;;;;;;;;4980545;28;20959;-83
2021/01/15 06:19:03;;;;;;;32.42;14.45;;;;;;;;;;4968959;28;20085;-81
2021/01/15 06:21:31;;;;;;;22.60;12.73;;;;;;;;;;4969309;28;20037;-82
2021/01/15 06:23:59;;;;;;;25.83;14.48;;;;;;;;;;4990617;28;20122;-82
2021/01/15 06:26:38;;;;;;;26.60;14.05;;;;;;;;;;4987151;28;20031;-82
2021/01/15 06:29:09;;;;;;;29.67;16.20;;;;;;;;;;4967995;28;20023;-81
2021/01/15 06:31:48;;;;;;;31.77;15.88;;;;;;;;;;4984127;28;20050;-82
2021/01/15 06:34:19;;;;;;;29.23;15.18;;;;;;;;;;4989247;28;20028;-82
2021/01/15 06:36:54;;;;;;;29.33;15.10;;;;;;;;;;4956130;29;20599;-82
2021/01/15 06:39:21;;;;;;;28.48;14.25;;;;;;;;;;4973166;28;20045;-82
2021/01/15 06:41:59;;;;;;;28.50;14.55;;;;;;;;;;4980338;28;20061;-82
2021/01/15 06:44:40;;;;;;;32.47;15.35;;;;;;;;;;4967200;28;20030;-80
2021/01/15 06:47:09;;;;;;;27.15;14.88;;;;;;;;;;4970972;28;20031;-82
2021/01/15 06:49:37;;;;;;;30.02;15.27;;;;;;;;;;4971597;28;20054;-83
2021/01/15 06:52:13;;;;;;;29.88;15.85;;;;;;;;;;4986846;28;20121;-82
2021/01/15 06:54:44;;;;;;;33.55;15.93;;;;;;;;;;4964254;28;20038;-82
2021/01/15 06:57:11;;;;;;;36.08;16.67;;;;;;;;;;4995194;28;20256;-83
2021/01/15 06:59:38;;;;;;;31.45;15.73;;;;;;;;;;4978673;28;20058;-83
2021/01/15 07:02:09;;;;;;;36.67;17.33;;;;;;;;;;4972728;28;20445;-81
2021/01/15 07:04:59;;;;;;;27.92;15.30;;;;;;;;;;4971692;28;20038;-83
2021/01/15 07:07:26;;;;;;;30.38;15.77;;;;;;;;;;4978825;28;20031;-82
2021/01/15 07:09:52;;;;;;;32.75;16.10;;;;;;;;;;4969844;28;20405;-83
2021/01/15 07:12:22;;;;;;;26.90;15.18;;;;;;;;;;4992782;28;20026;-82
2021/01/15 07:14:56;;;;;;;28.27;15.07;;;;;;;;;;4995022;28;20031;-82
2021/01/15 07:17:38;;;;;;;32.08;15.30;;;;;;;;;;4975310;28;20030;-82
2021/01/15 07:20:06;;;;;;;35.67;16.25;;;;;;;;;;4981225;28;20038;-82
2021/01/15 07:22:36;;;;;;;36.75;18.20;;;;;;;;;;4975130;28;20118;-82
2021/01/15 07:25:06;;;;;;;32.80;16.73;;;;;;;;;;4981310;28;20065;-82
2021/01/15 07:27:32;;;;;;;25.27;13.60;;;;;;;;;;4975798;28;20444;-81
2021/01/15 07:30:04;;;;;;;30.38;16.38;;;;;;;;;;4972478;28;20027;-81
2021/01/15 07:32:40;;;;;;;32.45;14.68;;;;;;;;;;4973560;28;20035;-82
2021/01/15 07:35:17;;;;;;;33.80;15.55;;;;;;;;;;4972517;28;20039;-83
2021/01/15 07:37:44;;;;;;;28.42;14.57;;;;;;;;;;4967506;28;20030;-82
2021/01/15 07:40:17;;;;;;;21.73;11.95;;;;;;;;;;4959797;28;20042;-82
2021/01/15 07:42:43;;;;;;;;;;;;;;;;;;4970565;28;20094;-82
2021/01/15 07:45:32;;;;;;;16.83;10.03;;;;;;;;;;4975886;28;19918;-82
2021/01/15 07:48:04;;;;;;;18.20;9.83;;;;;;;;;;4993261;28;20653;-82
2021/01/15 07:50:35;;;;;;;16.50;8.93;;;;;;;;;;4969622;28;20279;-82
2021/01/15 07:59:29;;;;;;;14.03;7.67;;;;;;;;;;4939802;28;20930;-83
2021/01/15 08:01:55;;;;;;;12.33;7.37;;;;;;;;;;4977929;28;20266;-83
2021/01/15 08:04:21;;;;;;;13.83;7.13;;;;;;;;;;5002421;28;20022;-82
2021/01/15 08:06:47;;;;;;;11.57;7.13;;;;;;;;;;4971148;28;20186;-81
2021/01/15 08:09:13;;;;;;;13.10;7.47;;;;;;;;;;4955207;28;20034;-81
2021/01/15 08:11:56;;;;;;;13.00;7.97;;;;;;;;;;4968620;28;20050;-86
2021/01/15 08:14:26;;;;;;;10.48;6.53;;;;;;;;;;4985803;28;20035;-83
2021/01/15 08:16:57;;;;;;;13.57;7.80;;;;;;;;;;4969395;28;20029;-83
2021/01/15 08:19:38;;;;;;;11.30;7.83;;;;;;;;;;4973275;28;20022;-83
2021/01/15 08:22:09;;;;;;;14.27;8.90;;;;;;;;;;4962405;28;20023;-82
2021/01/15 08:24:45;;;;;;;14.93;9.13;;;;;;;;;;4971318;28;20760;-83
2021/01/15 08:27:21;;;;;;;15.70;9.60;;;;;;;;;;4974539;28;20396;-82
2021/01/15 08:29:49;;;;;;;19.63;11.23;;;;;;;;;;4966835;28;20031;-83
2021/01/15 08:32:15;;;;;;;12.03;8.40;;;;;;;;;;4966685;28;20050;-83
2021/01/15 08:34:42;;;;;;;11.27;7.57;;;;;;;;;;4963413;28;20126;-84
2021/01/15 08:37:13;;;;;;;11.93;7.57;;;;;;;;;;4962944;28;20030;-84
2021/01/15 08:39:45;;;;;;;11.70;8.10;;;;;;;;;;4972693;28;20027;-83
2021/01/15 08:42:14;;;;;;;15.63;10.37;;;;;;;;;;4968109;28;20437;-83
2021/01/15 08:44:40;;;;;;;13.97;8.93;;;;;;;;;;4968306;28;20034;-83
2021/01/15 08:47:11;;;;;;;12.23;8.73;;;;;;;;;;4963259;28;20115;-83
2021/01/15 08:49:37;;;;;;;13.70;8.97;;;;;;;;;;4964957;28;20023;-83
2021/01/15 08:52:05;;;;;;;11.63;8.43;;;;;;;;;;4972713;28;20165;-82
2021/01/15 08:54:32;;;;;;;13.67;9.43;;;;;;;;;;4967791;28;20066;-83
2021/01/15 08:57:00;;;;;;;13.57;9.30;;;;;;;;;;4982933;28;20026;-84
2021/01/15 08:59:34;;;;;;;13.60;9.33;;;;;;;;;;4967786;28;20030;-82
2021/01/15 09:02:05;;;;;;;13.32;9.02;;;;;;;;;;4972351;28;20039;-82
2021/01/15 09:04:32;;;;;;;13.77;8.50;;;;;;;;;;4987939;28;20113;-82
2021/01/15 09:07:00;;;;;;;13.67;8.60;;;;;;;;;;4972321;28;20046;-84
2021/01/15 09:09:27;;;;;;;11.90;8.53;;;;;;;;;;4974450;28;20041;-84
2021/01/15 09:11:54;;;;;;;15.43;9.60;;;;;;;;;;4972941;28;20090;-83
2021/01/15 09:14:21;;;;;;;13.40;9.67;;;;;;;;;;4971643;28;20106;-84
2021/01/15 09:16:52;;;;;;;14.50;9.33;;;;;;;;;;4972353;28;20022;-82
2021/01/15 09:19:18;;;;;;;12.70;8.93;;;;;;;;;;4975395;28;20027;-85
2021/01/15 09:21:52;;;;;;;13.13;9.03;;;;;;;;;;4987465;28;20511;-82
2021/01/15 09:24:19;;;;;;;13.60;8.30;;;;;;;;;;4967311;28;20031;-82
2021/01/15 09:26:46;;;;;;;11.10;8.43;;;;;;;;;;4962055;28;20030;-82
2021/01/15 09:29:15;;;;;;;13.20;9.10;;;;;;;;;;4967801;28;20030;-83
2021/01/15 09:31:43;;;;;;;16.27;8.60;;;;;;;;;;4972029;28;20038;-84
2021/01/15 09:34:15;;;;;;;12.73;9.33;;;;;;;;;;4967512;28;20218;-84
2021/01/15 09:36:42;;;;;;;12.60;8.57;;;;;;;;;;4961498;28;20027;-83
2021/01/15 09:39:09;;;;;;;11.53;9.17;;;;;;;;;;4972195;28;20050;-85
2021/01/15 09:41:36;;;;;;;12.57;9.10;;;;;;;;;;4972670;28;20034;-84
2021/01/15 09:44:02;;;;;;;12.53;8.87;;;;;;;;;;4972566;28;20034;-83
2021/01/15 09:46:29;;;;;;;12.23;8.47;;;;;;;;;;4968362;28;20034;-83
2021/01/15 09:49:11;;;;;;;;;;;;;;;;;;;;;
2021/01/15 09:51:50;;;;;;;12.13;8.95;;;;;;;;;;4977741;28;20019;-83
2021/01/15 09:54:19;;;;;;;13.98;9.20;;;;;;;;;;4993227;28;20045;-84
2021/01/15 09:56:47;;;;;;;14.00;10.43;;;;;;;;;;4973166;28;20046;-84
2021/01/15 09:59:20;;;;;;;27.90;18.58;;;;;;;;;;4974311;28;20054;-86
2021/01/15 10:01:49;;;;;;;19.80;14.98;;;;;;;;;;4970123;28;20035;-84
2021/01/15 10:07:12;;;;;;;12.68;9.35;;;;;;;;;;4966040;28;20117;-83
2021/01/15 10:09:40;;;;;;;11.75;9.27;;;;;;;;;;4987676;28;20035;-83
2021/01/15 10:12:16;;;;;;;11.85;9.85;;;;;;;;;;4986029;28;20031;-83
2021/01/15 10:14:52;;;;;;;12.57;10.48;;;;;;;;;;4971510;28;20784;-83
2021/01/15 10:17:22;;;;;;;11.38;9.65;;;;;;;;;;4966553;28;20183;-84
2021/01/15 10:19:52;;;;;;;12.85;10.30;;;;;;;;;;4957456;28;20054;-84
2021/01/15 10:22:19;;;;;;;10.75;9.55;;;;;;;;;;4972424;28;20029;-85
2021/01/15 10:24:45;;;;;;;10.85;9.50;;;;;;;;;;4969329;28;20578;-83
2021/01/15 10:27:17;;;;;;;12.25;9.77;;;;;;;;;;4977627;28;20045;-83
2021/01/15 10:29:47;;;;;;;11.65;9.38;;;;;;;;;;4985049;28;20031;-83
2021/01/15 10:32:16;;;;;;;12.80;8.88;;;;;;;;;;4952520;28;20484;-81
2021/01/15 10:34:42;;;;;;;10.23;8.45;;;;;;;;;;4964036;28;20042;-82
2021/01/15 10:37:08;;;;;;;10.77;8.80;;;;;;;;;;4969460;28;20027;-82
2021/01/15 10:39:34;;;;;;;11.07;8.10;;;;;;;;;;4968317;28;20031;-81
2021/01/15 10:42:02;;;;;;;12.40;8.70;;;;;;;;;;4971081;28;20023;-81
2021/01/15 10:44:29;;;;;;;10.38;8.40;;;;;;;;;;4970436;28;20045;-82
2021/01/15 10:46:58;;;;;;;9.73;8.15;;;;;;;;;;4968480;28;20031;-83
2021/01/15 10:49:25;;;;;;;10.68;8.75;;;;;;;;;;4975857;28;20050;-83
2021/01/15 10:52:01;;;;;;;11.77;9.15;;;;;;;;;;4973514;28;20384;-82
2021/01/15 10:54:30;;;;;;;10.65;8.55;;;;;;;;;;4989958;28;20115;-83
2021/01/15 10:57:00;;;;;;;10.35;9.25;;;;;;;;;;4972036;28;20388;-83
2021/01/15 10:59:26;;;;;;;10.68;8.73;;;;;;;;;;4958666;29;20138;-83
2021/01/15 11:01:53;;;;;;;10.63;8.63;;;;;;;;;;4977357;28;20122;-84
2021/01/15 11:04:38;;;;;;;;;;;;;;;;;;;;;
2021/01/15 11:07:05;;;;;;;10.90;9.27;;;;;;;;;;4983505;28;20037;-85
2021/01/15 11:09:32;;;;;;;9.32;7.50;;;;;;;;;;4985176;28;20408;-85
2021/01/15 11:11:59;;;;;;;10.35;7.82;;;;;;;;;;4960302;28;20097;-85
2021/01/15 11:14:25;;;;;;;9.68;7.80;;;;;;;;;;4987495;28;20094;-84
2021/01/15 11:16:53;;;;;;;10.05;7.80;;;;;;;;;;4984127;28;20023;-83
2021/01/15 11:19:20;;;;;;;9.10;7.75;;;;;;;;;;4990199;28;20535;-85
2021/01/15 11:21:46;;;;;;;10.82;8.38;;;;;;;;;;4976246;28;20031;-84
2021/01/15 11:24:13;;;;;;;10.23;8.00;;;;;;;;;;4974369;28;20059;-82
2021/01/15 11:26:39;;;;;;;8.75;7.28;;;;;;;;;;4968482;28;20026;-81
2021/01/15 11:29:09;;;;;;;11.75;7.80;;;;;;;;;;4989669;28;20039;-81
2021/01/15 11:31:39;;;;;;;9.93;8.00;;;;;;;;;;4982434;28;20434;-81
2021/01/15 11:34:06;;;;;;;9.32;7.85;;;;;;;;;;5003430;28;20496;-84
2021/01/15 11:36:36;;;;;;;9.55;7.78;;;;;;;;;;4963294;28;20034;-84
2021/01/15 11:39:36;;;;;;;10.75;8.52;;;;;;;;;;4983471;28;20038;-85
2021/01/15 11:42:23;;;;;;;10.52;8.70;;;;;;;;;;4954859;28;20054;-84
2021/01/15 11:45:42;;;;;;;8.55;7.30;;;;;;;;;;4936123;29;20035;-82
2021/01/15 11:48:45;;;;;;;11.57;8.88;;;;;;;;;;4843747;29;20026;-83
2021/01/15 11:51:24;;;;;;;9.63;8.25;;;;;;;;;;4829281;29;20133;-83
2021/01/15 11:57:14;;;;;;;10.57;9.05;;;;;;;;;;4856830;29;20037;-84
2021/01/15 12:06:55;;;;;;;11.48;8.48;;;;;;;;;;4784759;30;20050;-84
2021/01/15 12:09:58;;;;;;;9.98;7.88;;;;;;;;;;4753229;30;20463;-85
2021/01/15 12:12:27;;;;;;;11.45;9.13;;;;;;;;;;4790327;29;20057;-81
2021/01/15 12:15:16;;;;;;;10.52;8.77;;;;;;;;;;4928984;28;20033;-83
2021/01/15 12:18:20;;;;;;;;;;;;;;;;;;;;;
2021/01/15 13:18:52;;;;;;;11.75;9.48;;;;;;;;;;5004271;28;20038;-82
2021/01/15 13:21:59;;;;;;;12.20;9.15;;;;;;;;;;5001987;28;20080;-83
2021/01/15 13:24:31;;;;;;;15.02;11.65;;;;;;;;;;4970745;28;20514;-82
2021/01/15 13:27:18;;;;;;;10.70;8.55;;;;;;;;;;4999576;28;20015;-83
2021/01/15 13:30:31;;;;;;;11.20;8.20;;;;;;;;;;4991720;28;20034;-83
2021/01/15 13:33:22;;;;;;;11.20;8.05;;;;;;;;;;4973145;28;20023;-83
2021/01/15 13:35:49;;;;;;;10.52;8.40;;;;;;;;;;4988393;28;20031;-82
2021/01/15 13:38:58;;;;;;;;;;;;;;;;;;;;;
2021/01/15 13:41:27;;;;;;;11.07;8.27;;;;;;;;;;4993508;28;20117;-83
2021/01/15 13:44:04;;;;;;;10.88;8.02;;;;;;;;;;4979903;28;20027;-83
2021/01/15 13:46:37;;;;;;;11.52;8.45;;;;;;;;;;4982367;28;20043;-83
2021/01/15 13:49:06;;;;;;;13.02;9.45;;;;;;;;;;4981215;28;20022;-83
2021/01/15 13:51:33;;;;;;;13.70;9.37;;;;;;;;;;4993286;28;20101;-83
2021/01/15 13:57:24;;;;;;;10.80;7.23;;;;;;;;;;4935893;29;20035;-83
2021/01/15 14:00:37;;;;;;;11.43;8.53;;;;;;;;;;4983581;28;20530;-83
2021/01/15 14:09:14;;;;;;;;;;;;;;;;;;;;;
2021/01/15 14:14:33;;;;;;;9.73;7.03;;;;;;;;;;4994082;28;20254;-84
2021/01/15 14:17:11;;;;;;;12.68;9.07;;;;;;;;;;4991277;28;20073;-83
2021/01/15 14:19:48;;;;;;;11.00;7.80;;;;;;;;;;4977647;28;20034;-83
2021/01/15 14:34:45;;;;;;;10.53;7.83;;;;;;;;;;4946118;28;20054;-83
2021/01/15 14:37:30;;;;;;;10.73;7.13;;;;;;;;;;4960636;28;20035;-82
2021/01/15 14:46:32;;;;;;;;;;;;;;;;;;;;;
2021/01/15 14:49:03;;;;;;;11.93;6.82;;;;;;;;;;4953385;28;20042;-84
2021/01/15 14:51:46;;;;;;;13.30;9.33;;;;;;;;;;4990627;28;20424;-83
2021/01/15 14:54:16;;;;;;;11.25;6.95;;;;;;;;;;4995901;28;20088;-83
2021/01/15 14:56:47;;;;;;;14.33;8.10;;;;;;;;;;4994831;28;20022;-82
2021/01/15 14:59:19;;;;;;;10.37;7.13;;;;;;;;;;4990675;28;20070;-82
2021/01/15 15:01:55;;;;;;;11.10;7.33;;;;;;;;;;4978713;28;20094;-85
2021/01/15 15:04:24;;;;;;;13.63;8.97;;;;;;;;;;4976548;28;20030;-82
2021/01/15 15:06:50;;;;;;;12.40;8.00;;;;;;;;;;4976379;28;20034;-82
2021/01/15 15:09:19;;;;;;;13.80;7.90;;;;;;;;;;4989947;28;20251;-83
2021/01/15 15:11:51;;;;;;;11.70;6.70;;;;;;;;;;4996261;28;20030;-83
2021/01/15 15:14:17;;;;;;;12.53;7.07;;;;;;;;;;4979843;28;20026;-83
2021/01/15 15:16:46;;;;;;;12.43;7.43;;;;;;;;;;4979155;28;20274;-83
2021/01/15 15:19:14;;;;;;;12.63;7.90;;;;;;;;;;5011301;28;20289;-83
2021/01/15 15:21:45;;;;;;;11.07;7.00;;;;;;;;;;4999047;28;20273;-82
2021/01/15 15:24:22;;;;;;;12.30;8.30;;;;;;;;;;4993129;28;20273;-83
2021/01/15 15:26:50;;;;;;;13.13;8.23;;;;;;;;;;5000661;28;20285;-83
2021/01/15 15:29:19;;;;;;;14.17;7.80;;;;;;;;;;4978994;28;20759;-83
2021/01/15 15:31:51;;;;;;;15.83;9.07;;;;;;;;;;4984377;28;20281;-83
2021/01/15 15:34:17;;;;;;;13.63;7.70;;;;;;;;;;4979813;28;20349;-83
2021/01/15 15:36:47;;;;;;;15.83;8.37;;;;;;;;;;4995086;28;20323;-83
2021/01/15 15:39:18;;;;;;;13.87;6.80;;;;;;;;;;4995001;28;20285;-83
2021/01/15 15:41:47;;;;;;;13.13;7.27;;;;;;;;;;4995931;28;20313;-83
2021/01/15 15:44:29;;;;;;;16.80;9.20;;;;;;;;;;4989159;28;20271;-83
2021/01/15 15:47:13;;;;;;;20.37;10.30;;;;;;;;;;4992734;28;20277;-82
2021/01/15 15:49:50;;;;;;;21.83;12.10;;;;;;;;;;4977137;28;20293;-82
2021/01/15 15:52:37;;;;;;;23.43;14.27;;;;;;;;;;4978204;28;20627;-82
2021/01/15 16:01:29;;;;;;;35.33;18.90;;;;;;;;;;4995482;28;20265;-81
2021/01/15 16:03:55;;;;;;;34.27;18.77;;;;;;;;;;4981492;28;20285;-82
2021/01/15 16:06:21;;;;;;;23.77;14.33;;;;;;;;;;4988983;28;20277;-82
2021/01/15 16:08:48;;;;;;;30.77;15.07;;;;;;;;;;4994444;28;20272;-80
2021/01/15 16:11:14;;;;;;;18.40;10.17;;;;;;;;;;4977992;28;20779;-82
2021/01/15 16:13:45;;;;;;;24.57;13.70;;;;;;;;;;4993858;28;20304;-81
2021/01/15 16:16:14;;;;;;;21.93;12.03;;;;;;;;;;4974536;28;20282;-82
2021/01/15 16:18:43;;;;;;;67.53;28.37;;;;;;;;;;4993414;28;20278;-81
2021/01/15 16:21:15;;;;;;;26.60;15.07;;;;;;;;;;4994179;28;20361;-81
2021/01/15 16:23:41;;;;;;;16.90;9.77;;;;;;;;;;4991952;28;20364;-80
2021/01/15 16:26:13;;;;;;;23.63;12.63;;;;;;;;;;4994253;28;20261;-81
2021/01/15 16:28:39;;;;;;;47.30;23.43;;;;;;;;;;4993848;28;20281;-82
2021/01/15 16:31:05;;;;;;;28.33;14.90;;;;;;;;;;4998606;28;20282;-80
2021/01/15 16:33:33;;;;;;;26.53;15.90;;;;;;;;;;4975746;28;20806;-80
2021/01/15 16:36:00;;;;;;;18.73;11.87;;;;;;;;;;4979146;28;20305;-80
2021/01/15 16:38:27;;;;;;;22.53;12.50;;;;;;;;;;4994984;28;20277;-80
2021/01/15 16:41:02;;;;;;;24.67;12.17;;;;;;;;;;4977354;28;20285;-80
2021/01/15 16:43:28;;;;;;;15.20;9.23;;;;;;;;;;4990406;28;20282;-81
2021/01/15 16:45:55;;;;;;;47.07;23.50;;;;;;;;;;4993948;28;20304;-81
2021/01/15 16:48:23;;;;;;;24.17;12.83;;;;;;;;;;4973396;28;20369;-81
2021/01/15 16:50:50;;;;;;;19.97;11.30;;;;;;;;;;4976435;28;20388;-82
2021/01/15 16:53:16;;;;;;;26.67;13.77;;;;;;;;;;4996000;28;20355;-81
2021/01/15 16:55:45;;;;;;;17.07;9.33;;;;;;;;;;5001663;28;20265;-81
2021/01/15 16:58:13;;;;;;;16.13;10.20;;;;;;;;;;4981525;28;20290;-81
2021/01/15 17:00:40;;;;;;;18.27;11.50;;;;;;;;;;4989488;28;20273;-80
2021/01/15 17:03:07;;;;;;;24.83;14.07;;;;;;;;;;4974092;28;20276;-80
2021/01/15 17:05:35;;;;;;;21.67;12.60;;;;;;;;;;4990784;28;20282;-80
2021/01/15 17:08:01;;;;;;;38.63;22.30;;;;;;;;;;4973499;28;20286;-81
2021/01/15 17:10:28;;;;;;;26.27;15.27;;;;;;;;;;4975615;28;20296;-81
2021/01/15 17:13:07;;;;;;;21.30;12.80;;;;;;;;;;4975233;28;20279;-82